sensor_id;sensor_type;location;lat;lon;timestamp;P1;durP1;ratioP1;P2;durP2;ratioP2
49147;SDS011;41980;45.550;12.070;2023-06-10T00:02:22;3.67;;;2.58;;
49147;SDS011;41980;45.550;12.070;2023-06-10T00:08:24;3.75;;;2.75;;
49147;SDS011;41980;45.550;12.070;2023-06-10T00:14:26;4.53;;;3.35;;
49147;SDS011;41980;45.550;12.070;2023-06-10T00:20:28;2.97;;;2.15;;
49147;SDS011;41980;45.550;12.070;2023-06-10T00:26:32;3.83;;;1.80;;
49147;SDS011;41980;45.550;12.070;2023-06-10T00:32:34;3.33;;;2.30;;
49147;SDS011;41980;45.550;12.070;2023-06-10T00:38:37;3.45;;;2.63;;
49147;SDS011;41980;45.550;12.070;2023-06-10T00:44:39;2.90;;;2.20;;
49147;SDS011;41980;45.550;12.070;2023-06-10T00:50:41;2.88;;;2.17;;
49147;SDS011;41980;45.550;12.070;2023-06-10T00:56:43;3.58;;;3.00;;
49147;SDS011;41980;45.550;12.070;2023-06-10T01:02:45;3.47;;;2.67;;
49147;SDS011;41980;45.550;12.070;2023-06-10T01:14:55;2.95;;;2.15;;
49147;SDS011;41980;45.550;12.070;2023-06-10T01:20:58;3.15;;;2.47;;
49147;SDS011;41980;45.550;12.070;2023-06-10T01:27:01;4.07;;;2.58;;
49147;SDS011;41980;45.550;12.070;2023-06-10T01:33:07;5.53;;;3.70;;
49147;SDS011;41980;45.550;12.070;2023-06-10T01:39:12;5.40;;;4.13;;
49147;SDS011;41980;45.550;12.070;2023-06-10T01:45:16;5.45;;;3.40;;
49147;SDS011;41980;45.550;12.070;2023-06-10T01:51:18;6.28;;;4.10;;
49147;SDS011;41980;45.550;12.070;2023-06-10T01:57:22;5.68;;;4.70;;
49147;SDS011;41980;45.550;12.070;2023-06-10T02:03:24;4.30;;;3.40;;
49147;SDS011;41980;45.550;12.070;2023-06-10T02:09:26;5.75;;;3.47;;
49147;SDS011;41980;45.550;12.070;2023-06-10T02:15:28;5.63;;;4.68;;
49147;SDS011;41980;45.550;12.070;2023-06-10T02:21:30;5.05;;;4.10;;
49147;SDS011;41980;45.550;12.070;2023-06-10T02:27:32;7.60;;;3.97;;
49147;SDS011;41980;45.550;12.070;2023-06-10T02:33:34;6.13;;;5.05;;
49147;SDS011;41980;45.550;12.070;2023-06-10T02:39:42;6.13;;;4.40;;
49147;SDS011;41980;45.550;12.070;2023-06-10T02:45:46;5.70;;;4.13;;
49147;SDS011;41980;45.550;12.070;2023-06-10T02:51:50;4.60;;;3.70;;
49147;SDS011;41980;45.550;12.070;2023-06-10T02:57:55;4.38;;;3.50;;
49147;SDS011;41980;45.550;12.070;2023-06-10T03:03:58;4.05;;;2.83;;
49147;SDS011;41980;45.550;12.070;2023-06-10T03:10:01;4.43;;;3.13;;
49147;SDS011;41980;45.550;12.070;2023-06-10T03:16:03;5.15;;;4.00;;
49147;SDS011;41980;45.550;12.070;2023-06-10T03:22:08;4.50;;;2.97;;
49147;SDS011;41980;45.550;12.070;2023-06-10T03:28:15;4.68;;;3.38;;
49147;SDS011;41980;45.550;12.070;2023-06-10T03:34:18;3.20;;;2.33;;
49147;SDS011;41980;45.550;12.070;2023-06-10T03:40:20;2.58;;;1.75;;
49147;SDS011;41980;45.550;12.070;2023-06-10T03:46:23;4.05;;;3.00;;
49147;SDS011;41980;45.550;12.070;2023-06-10T03:52:25;3.00;;;2.17;;
49147;SDS011;41980;45.550;12.070;2023-06-10T03:58:27;3.58;;;2.92;;
49147;SDS011;41980;45.550;12.070;2023-06-10T04:04:29;3.92;;;3.10;;
49147;SDS011;41980;45.550;12.070;2023-06-10T04:10:33;5.07;;;3.55;;
49147;SDS011;41980;45.550;12.070;2023-06-10T04:16:36;4.28;;;3.35;;
49147;SDS011;41980;45.550;12.070;2023-06-10T04:22:40;4.28;;;2.92;;
49147;SDS011;41980;45.550;12.070;2023-06-10T04:28:43;3.80;;;3.10;;
49147;SDS011;41980;45.550;12.070;2023-06-10T04:34:45;3.50;;;2.47;;
49147;SDS011;41980;45.550;12.070;2023-06-10T04:40:47;3.15;;;2.25;;
49147;SDS011;41980;45.550;12.070;2023-06-10T04:46:51;3.80;;;2.88;;
49147;SDS011;41980;45.550;12.070;2023-06-10T04:52:53;5.85;;;4.50;;
49147;SDS011;41980;45.550;12.070;2023-06-10T04:58:59;4.40;;;3.65;;
49147;SDS011;41980;45.550;12.070;2023-06-10T05:05:01;5.00;;;3.50;;
49147;SDS011;41980;45.550;12.070;2023-06-10T05:11:04;2.65;;;1.85;;
49147;SDS011;41980;45.550;12.070;2023-06-10T05:17:05;5.30;;;4.13;;
49147;SDS011;41980;45.550;12.070;2023-06-10T05:23:07;3.20;;;2.70;;
49147;SDS011;41980;45.550;12.070;2023-06-10T05:29:09;5.15;;;3.58;;
49147;SDS011;41980;45.550;12.070;2023-06-10T05:35:11;7.63;;;5.70;;
49147;SDS011;41980;45.550;12.070;2023-06-10T05:41:13;4.60;;;3.60;;
49147;SDS011;41980;45.550;12.070;2023-06-10T05:47:15;5.70;;;4.45;;
49147;SDS011;41980;45.550;12.070;2023-06-10T05:53:17;5.88;;;4.03;;
49147;SDS011;41980;45.550;12.070;2023-06-10T05:59:19;4.78;;;3.53;;
49147;SDS011;41980;45.550;12.070;2023-06-10T06:05:24;4.85;;;4.05;;
49147;SDS011;41980;45.550;12.070;2023-06-10T06:11:26;4.68;;;3.95;;
49147;SDS011;41980;45.550;12.070;2023-06-10T06:17:28;5.53;;;4.32;;
49147;SDS011;41980;45.550;12.070;2023-06-10T06:23:30;3.58;;;2.75;;
49147;SDS011;41980;45.550;12.070;2023-06-10T06:29:32;4.15;;;3.08;;
49147;SDS011;41980;45.550;12.070;2023-06-10T06:35:34;4.82;;;3.75;;
49147;SDS011;41980;45.550;12.070;2023-06-10T06:41:36;3.83;;;3.15;;
49147;SDS011;41980;45.550;12.070;2023-06-10T06:47:38;4.00;;;3.10;;
49147;SDS011;41980;45.550;12.070;2023-06-10T06:53:40;3.92;;;2.78;;
49147;SDS011;41980;45.550;12.070;2023-06-10T06:59:45;4.72;;;2.97;;
49147;SDS011;41980;45.550;12.070;2023-06-10T07:05:49;4.50;;;3.78;;
49147;SDS011;41980;45.550;12.070;2023-06-10T07:11:51;3.38;;;2.53;;
49147;SDS011;41980;45.550;12.070;2023-06-10T07:17:53;5.80;;;4.40;;
49147;SDS011;41980;45.550;12.070;2023-06-10T07:23:56;3.85;;;3.17;;
49147;SDS011;41980;45.550;12.070;2023-06-10T07:29:58;4.82;;;3.88;;
49147;SDS011;41980;45.550;12.070;2023-06-10T07:36:02;4.57;;;3.58;;
49147;SDS011;41980;45.550;12.070;2023-06-10T07:42:04;3.58;;;2.92;;
49147;SDS011;41980;45.550;12.070;2023-06-10T07:48:07;4.35;;;3.38;;
49147;SDS011;41980;45.550;12.070;2023-06-10T07:54:09;4.97;;;3.33;;
49147;SDS011;41980;45.550;12.070;2023-06-10T08:00:15;6.97;;;6.28;;
49147;SDS011;41980;45.550;12.070;2023-06-10T08:06:19;5.80;;;3.50;;
49147;SDS011;41980;45.550;12.070;2023-06-10T08:12:21;6.82;;;6.13;;
49147;SDS011;41980;45.550;12.070;2023-06-10T08:18:23;8.15;;;5.22;;
49147;SDS011;41980;45.550;12.070;2023-06-10T08:24:25;6.50;;;5.80;;
49147;SDS011;41980;45.550;12.070;2023-06-10T08:30:27;6.78;;;6.10;;
49147;SDS011;41980;45.550;12.070;2023-06-10T08:36:30;9.05;;;6.97;;
49147;SDS011;41980;45.550;12.070;2023-06-10T08:42:34;6.35;;;4.30;;
49147;SDS011;41980;45.550;12.070;2023-06-10T08:48:42;4.80;;;3.95;;
49147;SDS011;41980;45.550;12.070;2023-06-10T08:54:48;3.80;;;2.95;;
49147;SDS011;41980;45.550;12.070;2023-06-10T09:00:54;5.80;;;4.65;;
49147;SDS011;41980;45.550;12.070;2023-06-10T09:06:56;6.50;;;3.88;;
49147;SDS011;41980;45.550;12.070;2023-06-10T09:12:59;3.92;;;3.20;;
49147;SDS011;41980;45.550;12.070;2023-06-10T09:19:01;9.60;;;6.65;;
49147;SDS011;41980;45.550;12.070;2023-06-10T09:25:10;4.18;;;3.40;;
49147;SDS011;41980;45.550;12.070;2023-06-10T09:31:14;7.15;;;6.35;;
49147;SDS011;41980;45.550;12.070;2023-06-10T09:37:20;8.30;;;7.25;;
49147;SDS011;41980;45.550;12.070;2023-06-10T09:43:23;5.90;;;4.97;;
49147;SDS011;41980;45.550;12.070;2023-06-10T09:49:41;6.25;;;4.68;;
49147;SDS011;41980;45.550;12.070;2023-06-10T09:55:44;6.93;;;5.93;;
49147;SDS011;41980;45.550;12.070;2023-06-10T10:01:48;6.68;;;5.93;;
49147;SDS011;41980;45.550;12.070;2023-06-10T10:07:57;6.43;;;5.80;;
49147;SDS011;41980;45.550;12.070;2023-06-10T10:13:59;7.15;;;6.43;;
49147;SDS011;41980;45.550;12.070;2023-06-10T10:20:05;9.18;;;8.27;;
49147;SDS011;41980;45.550;12.070;2023-06-10T10:26:11;6.80;;;5.28;;
49147;SDS011;41980;45.550;12.070;2023-06-10T10:32:16;9.20;;;8.18;;
49147;SDS011;41980;45.550;12.070;2023-06-10T10:38:19;11.25;;;9.63;;
49147;SDS011;41980;45.550;12.070;2023-06-10T10:44:23;9.38;;;8.38;;
49147;SDS011;41980;45.550;12.070;2023-06-10T10:50:28;8.18;;;7.38;;
49147;SDS011;41980;45.550;12.070;2023-06-10T10:56:32;6.85;;;5.72;;
49147;SDS011;41980;45.550;12.070;2023-06-10T11:02:36;5.85;;;5.25;;
49147;SDS011;41980;45.550;12.070;2023-06-10T11:14:51;6.55;;;5.53;;
49147;SDS011;41980;45.550;12.070;2023-06-10T11:20:59;5.38;;;4.85;;
49147;SDS011;41980;45.550;12.070;2023-06-10T11:33:17;5.75;;;4.30;;
49147;SDS011;41980;45.550;12.070;2023-06-10T11:39:19;4.80;;;3.75;;
49147;SDS011;41980;45.550;12.070;2023-06-10T11:45:22;4.95;;;4.43;;
49147;SDS011;41980;45.550;12.070;2023-06-10T11:51:25;4.53;;;3.50;;
49147;SDS011;41980;45.550;12.070;2023-06-10T11:57:29;4.80;;;3.58;;
49147;SDS011;41980;45.550;12.070;2023-06-10T12:09:39;4.28;;;3.88;;
49147;SDS011;41980;45.550;12.070;2023-06-10T12:15:41;6.22;;;5.57;;
49147;SDS011;41980;45.550;12.070;2023-06-10T12:21:43;5.63;;;4.90;;
49147;SDS011;41980;45.550;12.070;2023-06-10T12:27:51;7.82;;;6.18;;
49147;SDS011;41980;45.550;12.070;2023-06-10T12:40:04;6.57;;;5.88;;
49147;SDS011;41980;45.550;12.070;2023-06-10T12:46:09;6.90;;;4.32;;
49147;SDS011;41980;45.550;12.070;2023-06-10T12:52:14;4.95;;;3.95;;
49147;SDS011;41980;45.550;12.070;2023-06-10T12:58:16;4.85;;;3.70;;
49147;SDS011;41980;45.550;12.070;2023-06-10T13:04:20;5.70;;;4.57;;
49147;SDS011;41980;45.550;12.070;2023-06-10T13:10:22;5.30;;;3.72;;
49147;SDS011;41980;45.550;12.070;2023-06-10T13:16:26;4.30;;;3.45;;
49147;SDS011;41980;45.550;12.070;2023-06-10T13:22:28;5.88;;;3.55;;
49147;SDS011;41980;45.550;12.070;2023-06-10T13:28:31;4.45;;;3.50;;
49147;SDS011;41980;45.550;12.070;2023-06-10T13:34:35;4.20;;;3.25;;
49147;SDS011;41980;45.550;12.070;2023-06-10T13:40:38;4.80;;;3.13;;
49147;SDS011;41980;45.550;12.070;2023-06-10T13:46:40;3.85;;;2.20;;
49147;SDS011;41980;45.550;12.070;2023-06-10T13:52:43;3.67;;;2.15;;
49147;SDS011;41980;45.550;12.070;2023-06-10T13:58:46;3.78;;;1.80;;
49147;SDS011;41980;45.550;12.070;2023-06-10T14:04:48;3.65;;;1.90;;
49147;SDS011;41980;45.550;12.070;2023-06-10T14:10:50;3.78;;;2.08;;
49147;SDS011;41980;45.550;12.070;2023-06-10T14:16:52;3.45;;;1.98;;
49147;SDS011;41980;45.550;12.070;2023-06-10T14:22:55;4.03;;;1.95;;
49147;SDS011;41980;45.550;12.070;2023-06-10T14:28:57;2.60;;;1.63;;
49147;SDS011;41980;45.550;12.070;2023-06-10T14:34:59;3.08;;;1.67;;
49147;SDS011;41980;45.550;12.070;2023-06-10T14:41:01;4.00;;;1.80;;
49147;SDS011;41980;45.550;12.070;2023-06-10T14:47:03;3.85;;;1.90;;
49147;SDS011;41980;45.550;12.070;2023-06-10T14:53:06;4.05;;;2.33;;
49147;SDS011;41980;45.550;12.070;2023-06-10T14:59:08;4.13;;;2.05;;
49147;SDS011;41980;45.550;12.070;2023-06-10T15:05:10;4.63;;;1.85;;
49147;SDS011;41980;45.550;12.070;2023-06-10T15:11:12;3.70;;;2.30;;
49147;SDS011;41980;45.550;12.070;2023-06-10T15:17:15;3.70;;;2.10;;
49147;SDS011;41980;45.550;12.070;2023-06-10T15:23:17;4.95;;;2.33;;
49147;SDS011;41980;45.550;12.070;2023-06-10T15:29:19;8.50;;;1.75;;
49147;SDS011;41980;45.550;12.070;2023-06-10T15:35:21;2.70;;;1.30;;
49147;SDS011;41980;45.550;12.070;2023-06-10T15:41:23;3.20;;;1.10;;
49147;SDS011;41980;45.550;12.070;2023-06-10T15:47:25;2.03;;;1.10;;
49147;SDS011;41980;45.550;12.070;2023-06-10T15:53:28;2.58;;;1.10;;
49147;SDS011;41980;45.550;12.070;2023-06-10T15:59:30;2.40;;;1.20;;
49147;SDS011;41980;45.550;12.070;2023-06-10T16:05:32;2.10;;;1.20;;
49147;SDS011;41980;45.550;12.070;2023-06-10T16:11:34;3.40;;;1.38;;
49147;SDS011;41980;45.550;12.070;2023-06-10T16:17:36;2.47;;;1.25;;
49147;SDS011;41980;45.550;12.070;2023-06-10T16:23:39;2.40;;;1.30;;
49147;SDS011;41980;45.550;12.070;2023-06-10T16:29:41;3.70;;;1.48;;
49147;SDS011;41980;45.550;12.070;2023-06-10T16:35:43;3.35;;;1.20;;
49147;SDS011;41980;45.550;12.070;2023-06-10T16:41:45;3.13;;;1.42;;
49147;SDS011;41980;45.550;12.070;2023-06-10T16:47:47;2.70;;;1.10;;
49147;SDS011;41980;45.550;12.070;2023-06-10T16:53:51;2.15;;;1.23;;
49147;SDS011;41980;45.550;12.070;2023-06-10T16:59:53;1.88;;;1.08;;
49147;SDS011;41980;45.550;12.070;2023-06-10T17:05:55;2.97;;;1.30;;
49147;SDS011;41980;45.550;12.070;2023-06-10T17:11:59;4.28;;;2.67;;
49147;SDS011;41980;45.550;12.070;2023-06-10T17:18:01;6.18;;;4.57;;
49147;SDS011;41980;45.550;12.070;2023-06-10T17:24:03;5.20;;;2.60;;
49147;SDS011;41980;45.550;12.070;2023-06-10T17:30:06;3.75;;;2.53;;
49147;SDS011;41980;45.550;12.070;2023-06-10T17:36:09;4.50;;;2.10;;
49147;SDS011;41980;45.550;12.070;2023-06-10T17:42:11;4.00;;;2.83;;
49147;SDS011;41980;45.550;12.070;2023-06-10T17:48:13;5.13;;;2.80;;
49147;SDS011;41980;45.550;12.070;2023-06-10T17:54:16;5.13;;;4.13;;
49147;SDS011;41980;45.550;12.070;2023-06-10T18:00:20;8.32;;;5.45;;
49147;SDS011;41980;45.550;12.070;2023-06-10T18:06:30;8.70;;;6.63;;
49147;SDS011;41980;45.550;12.070;2023-06-10T18:12:33;7.45;;;5.63;;
49147;SDS011;41980;45.550;12.070;2023-06-10T18:18:35;4.53;;;3.35;;
49147;SDS011;41980;45.550;12.070;2023-06-10T18:24:38;10.57;;;6.57;;
49147;SDS011;41980;45.550;12.070;2023-06-10T18:30:41;6.07;;;4.40;;
49147;SDS011;41980;45.550;12.070;2023-06-10T18:36:43;8.90;;;7.68;;
49147;SDS011;41980;45.550;12.070;2023-06-10T18:42:46;9.30;;;7.43;;
49147;SDS011;41980;45.550;12.070;2023-06-10T18:48:49;8.00;;;6.35;;
49147;SDS011;41980;45.550;12.070;2023-06-10T18:54:52;9.35;;;8.13;;
49147;SDS011;41980;45.550;12.070;2023-06-10T19:00:54;8.68;;;6.22;;
49147;SDS011;41980;45.550;12.070;2023-06-10T19:06:56;5.10;;;4.20;;
49147;SDS011;41980;45.550;12.070;2023-06-10T19:12:59;5.38;;;4.20;;
49147;SDS011;41980;45.550;12.070;2023-06-10T19:19:01;6.47;;;4.00;;
49147;SDS011;41980;45.550;12.070;2023-06-10T19:25:04;4.10;;;3.55;;
49147;SDS011;41980;45.550;12.070;2023-06-10T19:31:08;5.05;;;3.65;;
49147;SDS011;41980;45.550;12.070;2023-06-10T19:37:10;3.30;;;2.67;;
49147;SDS011;41980;45.550;12.070;2023-06-10T19:43:12;5.50;;;3.75;;
49147;SDS011;41980;45.550;12.070;2023-06-10T19:49:14;6.78;;;4.22;;
49147;SDS011;41980;45.550;12.070;2023-06-10T19:55:16;4.00;;;2.88;;
49147;SDS011;41980;45.550;12.070;2023-06-10T20:01:19;7.60;;;6.28;;
49147;SDS011;41980;45.550;12.070;2023-06-10T20:07:21;9.75;;;4.40;;
49147;SDS011;41980;45.550;12.070;2023-06-10T20:13:23;5.32;;;3.90;;
49147;SDS011;41980;45.550;12.070;2023-06-10T20:19:25;4.13;;;2.95;;
49147;SDS011;41980;45.550;12.070;2023-06-10T20:25:28;5.10;;;3.60;;
49147;SDS011;41980;45.550;12.070;2023-06-10T20:31:33;5.28;;;4.28;;
49147;SDS011;41980;45.550;12.070;2023-06-10T20:37:36;5.53;;;4.05;;
49147;SDS011;41980;45.550;12.070;2023-06-10T20:43:38;3.83;;;2.95;;
49147;SDS011;41980;45.550;12.070;2023-06-10T20:49:40;4.43;;;3.55;;
49147;SDS011;41980;45.550;12.070;2023-06-10T20:55:42;6.95;;;3.30;;
49147;SDS011;41980;45.550;12.070;2023-06-10T21:01:44;3.97;;;3.03;;
49147;SDS011;41980;45.550;12.070;2023-06-10T21:07:46;4.53;;;3.17;;
49147;SDS011;41980;45.550;12.070;2023-06-10T21:13:49;3.58;;;2.72;;
49147;SDS011;41980;45.550;12.070;2023-06-10T21:19:51;3.45;;;2.63;;
49147;SDS011;41980;45.550;12.070;2023-06-10T21:25:53;3.97;;;3.00;;
49147;SDS011;41980;45.550;12.070;2023-06-10T21:31:55;2.95;;;2.20;;
49147;SDS011;41980;45.550;12.070;2023-06-10T21:37:58;4.22;;;3.05;;
49147;SDS011;41980;45.550;12.070;2023-06-10T21:44:00;4.68;;;3.08;;
49147;SDS011;41980;45.550;12.070;2023-06-10T21:50:02;4.93;;;4.05;;
49147;SDS011;41980;45.550;12.070;2023-06-10T21:56:05;5.55;;;2.95;;
49147;SDS011;41980;45.550;12.070;2023-06-10T22:02:07;4.28;;;3.35;;
49147;SDS011;41980;45.550;12.070;2023-06-10T22:08:10;3.42;;;2.72;;
49147;SDS011;41980;45.550;12.070;2023-06-10T22:14:13;3.75;;;2.88;;
49147;SDS011;41980;45.550;12.070;2023-06-10T22:20:16;3.33;;;2.63;;
49147;SDS011;41980;45.550;12.070;2023-06-10T22:26:18;5.05;;;3.88;;
49147;SDS011;41980;45.550;12.070;2023-06-10T22:32:21;4.78;;;3.97;;
49147;SDS011;41980;45.550;12.070;2023-06-10T22:38:23;3.42;;;2.72;;
49147;SDS011;41980;45.550;12.070;2023-06-10T22:44:25;5.35;;;3.75;;
49147;SDS011;41980;45.550;12.070;2023-06-10T22:50:29;3.30;;;2.45;;
49147;SDS011;41980;45.550;12.070;2023-06-10T22:56:31;2.88;;;2.13;;
49147;SDS011;41980;45.550;12.070;2023-06-10T23:02:33;3.45;;;2.42;;
49147;SDS011;41980;45.550;12.070;2023-06-10T23:08:37;3.95;;;2.53;;
49147;SDS011;41980;45.550;12.070;2023-06-10T23:14:39;5.13;;;3.08;;
49147;SDS011;41980;45.550;12.070;2023-06-10T23:20:41;4.40;;;3.25;;
49147;SDS011;41980;45.550;12.070;2023-06-10T23:26:47;5.35;;;3.95;;
49147;SDS011;41980;45.550;12.070;2023-06-10T23:32:50;6.18;;;4.28;;
49147;SDS011;41980;45.550;12.070;2023-06-10T23:38:52;4.35;;;2.90;;
49147;SDS011;41980;45.550;12.070;2023-06-10T23:44:54;4.10;;;2.90;;
49147;SDS011;41980;45.550;12.070;2023-06-10T23:50:56;3.28;;;2.45;;
49147;SDS011;41980;45.550;12.070;2023-06-10T23:57:01;4.28;;;3.08;;
